Geldrop, Netherlands
Current Conditions -  °F | °C
As of 11:44 PM on Tuesday 21 Oct 2014 (Local Time) from EHEH Reporting Station
Rain Showers Rain Showers  
Wind Chill: 40°   Ceiling: 3900
Heat Index: 46°   Visibility: 6mi
Dew Point: 41°   Wind: 15mph
Humidity: 81%   Direction: 290°WNW
Pressure: 29.8"   Gusts: NA
Location:  51.42°N, 5.56°E
Report Text: EHEH 212144Z AUTO 29013KT 9999 -SHRA SCT034 BKN039 OVC044 08/05 Q1009 RERA BLU
Loading
Personal Weather Stations






























Interactive Weather Map
Tropical Storm Tracking
New forecast layout! Learn more

10-Day Weather Forecast

Advertisements
Track Severe Weather on mobile